sensor_id;sensor_type;location;lat;lon;timestamp;pressure;altitude;pressure_sealevel;temperature;humidity
38197;BME280;26543;51.976;4.616;2023-06-26T00:01:16;52114.91;;;-140.72;0.00
38197;BME280;26543;51.976;4.616;2023-06-26T00:03:42;52098.69;;;-140.72;0.00
38197;BME280;26543;51.976;4.616;2023-06-26T00:06:07;52090.56;;;-140.72;0.00
38197;BME280;26543;51.976;4.616;2023-06-26T00:08:32;52139.25;;;-140.72;0.00
38197;BME280;26543;51.976;4.616;2023-06-26T00:10:57;52084.47;;;-140.72;0.00
38197;BME280;26543;51.976;4.616;2023-06-26T00:13:23;52110.84;;;-140.72;0.00
38197;BME280;26543;51.976;4.616;2023-06-26T00:15:50;52118.97;;;-140.72;0.00
38197;BME280;26543;51.976;4.616;2023-06-26T00:18:15;52129.13;;;-140.72;0.00
38197;BME280;26543;51.976;4.616;2023-06-26T00:20:40;52139.25;;;-140.72;0.00
38197;BME280;26543;51.976;4.616;2023-06-26T00:23:05;52129.13;;;-140.72;0.00
38197;BME280;26543;51.976;4.616;2023-06-26T00:25:32;52147.38;;;-140.72;0.00
38197;BME280;26543;51.976;4.616;2023-06-26T00:27:57;52165.63;;;-140.72;0.00
38197;BME280;26543;51.976;4.616;2023-06-26T00:30:23;52143.31;;;-140.72;0.00
38197;BME280;26543;51.976;4.616;2023-06-26T00:32:48;52161.56;;;-140.72;0.00
38197;BME280;26543;51.976;4.616;2023-06-26T00:35:13;52155.50;;;-140.72;0.00
38197;BME280;26543;51.976;4.616;2023-06-26T00:37:39;52149.41;;;-140.72;0.00
38197;BME280;26543;51.976;4.616;2023-06-26T00:40:04;52167.66;;;-140.72;0.00
38197;BME280;26543;51.976;4.616;2023-06-26T00:42:30;52187.97;;;-140.72;0.00
38197;BME280;26543;51.976;4.616;2023-06-26T00:44:55;52183.91;;;-140.72;0.00
38197;BME280;26543;51.976;4.616;2023-06-26T00:47:21;52220.41;;;-140.72;0.00
38197;BME280;26543;51.976;4.616;2023-06-26T00:49:46;52218.38;;;-140.72;0.00
38197;BME280;26543;51.976;4.616;2023-06-26T00:52:11;52228.53;;;-140.72;0.00
38197;BME280;26543;51.976;4.616;2023-06-26T00:54:37;52200.13;;;-140.72;0.00
38197;BME280;26543;51.976;4.616;2023-06-26T00:57:02;52200.13;;;-140.72;9.21
38197;BME280;26543;51.976;4.616;2023-06-26T00:59:27;52216.34;;;-140.72;23.39
38197;BME280;26543;51.976;4.616;2023-06-26T01:01:52;52202.16;;;-140.72;34.27
38197;BME280;26543;51.976;4.616;2023-06-26T01:04:18;52212.31;;;-140.72;44.51
38197;BME280;26543;51.976;4.616;2023-06-26T01:06:44;52200.13;;;-140.72;63.40
38197;BME280;26543;51.976;4.616;2023-06-26T01:09:14;52224.47;;;-140.72;76.78
38197;BME280;26543;51.976;4.616;2023-06-26T01:11:39;52228.53;;;-140.72;91.73
38197;BME280;26543;51.976;4.616;2023-06-26T01:14:04;52206.22;;;-140.72;100.00
38197;BME280;26543;51.976;4.616;2023-06-26T01:16:29;52228.53;;;-140.72;100.00
38197;BME280;26543;51.976;4.616;2023-06-26T01:18:55;52261.00;;;-140.72;100.00
38197;BME280;26543;51.976;4.616;2023-06-26T01:21:21;52238.69;;;-140.72;100.00
38197;BME280;26543;51.976;4.616;2023-06-26T01:23:57;52220.41;;;-140.72;100.00
38197;BME280;26543;51.976;4.616;2023-06-26T01:26:24;52224.47;;;-140.72;100.00
38197;BME280;26543;51.976;4.616;2023-06-26T01:28:51;52169.69;;;-140.72;100.00
38197;BME280;26543;51.976;4.616;2023-06-26T01:31:18;52212.31;;;-140.72;100.00
38197;BME280;26543;51.976;4.616;2023-06-26T01:33:44;52214.34;;;-140.72;100.00
38197;BME280;26543;51.976;4.616;2023-06-26T01:36:10;52228.53;;;-140.72;100.00
38197;BME280;26543;51.976;4.616;2023-06-26T01:38:35;52206.22;;;-140.72;100.00
38197;BME280;26543;51.976;4.616;2023-06-26T01:41:01;52232.59;;;-140.72;100.00
38197;BME280;26543;51.976;4.616;2023-06-26T01:46:09;52210.28;;;-140.72;100.00
38197;BME280;26543;51.976;4.616;2023-06-26T01:51:32;52250.84;;;-140.72;100.00
38197;BME280;26543;51.976;4.616;2023-06-26T01:54:00;52187.97;;;-140.72;100.00
38197;BME280;26543;51.976;4.616;2023-06-26T01:56:26;52196.06;;;-140.72;100.00
38197;BME280;26543;51.976;4.616;2023-06-26T01:58:53;52240.72;;;-140.72;100.00
38197;BME280;26543;51.976;4.616;2023-06-26T02:01:20;52208.25;;;-140.72;100.00
38197;BME280;26543;51.976;4.616;2023-06-26T02:03:45;52228.53;;;-140.72;100.00
38197;BME280;26543;51.976;4.616;2023-06-26T02:06:10;52222.44;;;-140.72;100.00
38197;BME280;26543;51.976;4.616;2023-06-26T02:08:36;52242.75;;;-140.72;100.00
38197;BME280;26543;51.976;4.616;2023-06-26T02:11:01;52204.19;;;-140.72;100.00
38197;BME280;26543;51.976;4.616;2023-06-26T02:13:26;52256.94;;;-140.72;100.00
38197;BME280;26543;51.976;4.616;2023-06-26T02:15:51;52252.88;;;-140.72;100.00
38197;BME280;26543;51.976;4.616;2023-06-26T02:18:16;52240.72;;;-140.72;100.00
38197;BME280;26543;51.976;4.616;2023-06-26T02:20:42;52238.69;;;-140.72;100.00
38197;BME280;26543;51.976;4.616;2023-06-26T02:23:08;52261.00;;;-140.72;100.00
38197;BME280;26543;51.976;4.616;2023-06-26T02:25:34;52240.72;;;-140.72;100.00
38197;BME280;26543;51.976;4.616;2023-06-26T02:27:59;52238.69;;;-140.72;100.00
38197;BME280;26543;51.976;4.616;2023-06-26T02:30:24;52232.59;;;-140.72;100.00
38197;BME280;26543;51.976;4.616;2023-06-26T02:32:49;52256.94;;;-140.72;100.00
38197;BME280;26543;51.976;4.616;2023-06-26T02:35:15;52232.59;;;-140.72;100.00
38197;BME280;26543;51.976;4.616;2023-06-26T02:37:40;52258.97;;;-140.72;100.00
38197;BME280;26543;51.976;4.616;2023-06-26T02:40:05;52226.50;;;-140.72;100.00
38197;BME280;26543;51.976;4.616;2023-06-26T02:42:32;52208.25;;;-140.72;100.00
38197;BME280;26543;51.976;4.616;2023-06-26T02:44:58;52252.88;;;-140.72;100.00
38197;BME280;26543;51.976;4.616;2023-06-26T02:47:23;52234.63;;;-140.72;100.00
38197;BME280;26543;51.976;4.616;2023-06-26T02:49:48;52252.88;;;-140.72;100.00
38197;BME280;26543;51.976;4.616;2023-06-26T02:52:13;52248.81;;;-140.72;100.00
38197;BME280;26543;51.976;4.616;2023-06-26T02:54:39;52265.06;;;-140.72;100.00
38197;BME280;26543;51.976;4.616;2023-06-26T02:57:04;52228.53;;;-140.72;100.00
38197;BME280;26543;51.976;4.616;2023-06-26T02:59:29;52248.81;;;-140.72;100.00
38197;BME280;26543;51.976;4.616;2023-06-26T03:01:55;52256.94;;;-140.72;100.00
38197;BME280;26543;51.976;4.616;2023-06-26T03:04:20;52252.88;;;-140.72;100.00
38197;BME280;26543;51.976;4.616;2023-06-26T03:06:46;52244.78;;;-140.72;100.00
38197;BME280;26543;51.976;4.616;2023-06-26T03:09:11;52267.09;;;-140.72;100.00
38197;BME280;26543;51.976;4.616;2023-06-26T03:11:37;52252.88;;;-140.72;100.00
38197;BME280;26543;51.976;4.616;2023-06-26T03:14:02;52246.78;;;-140.72;100.00
38197;BME280;26543;51.976;4.616;2023-06-26T03:16:27;52261.00;;;-140.72;100.00
38197;BME280;26543;51.976;4.616;2023-06-26T03:18:52;52289.41;;;-140.72;100.00
38197;BME280;26543;51.976;4.616;2023-06-26T03:21:17;52283.31;;;-140.72;100.00
38197;BME280;26543;51.976;4.616;2023-06-26T03:23:43;52258.97;;;-140.72;100.00
38197;BME280;26543;51.976;4.616;2023-06-26T03:26:08;52297.53;;;-140.72;100.00
38197;BME280;26543;51.976;4.616;2023-06-26T03:28:33;52228.53;;;-140.72;100.00
38197;BME280;26543;51.976;4.616;2023-06-26T03:30:59;52261.00;;;-140.72;100.00
38197;BME280;26543;51.976;4.616;2023-06-26T03:33:24;52277.22;;;-140.72;100.00
38197;BME280;26543;51.976;4.616;2023-06-26T03:35:49;52240.72;;;-140.72;100.00
38197;BME280;26543;51.976;4.616;2023-06-26T03:38:14;52291.44;;;-140.72;100.00
38197;BME280;26543;51.976;4.616;2023-06-26T03:40:40;52277.22;;;-140.72;100.00
38197;BME280;26543;51.976;4.616;2023-06-26T03:43:05;52234.63;;;-140.72;100.00
38197;BME280;26543;51.976;4.616;2023-06-26T03:45:30;52293.47;;;-140.72;100.00
38197;BME280;26543;51.976;4.616;2023-06-26T03:47:55;52250.84;;;-140.72;100.00
38197;BME280;26543;51.976;4.616;2023-06-26T03:50:20;52261.00;;;-140.72;100.00
38197;BME280;26543;51.976;4.616;2023-06-26T03:52:46;52303.59;;;-140.72;100.00
38197;BME280;26543;51.976;4.616;2023-06-26T03:55:11;52321.88;;;-140.72;100.00
38197;BME280;26543;51.976;4.616;2023-06-26T03:57:38;52281.28;;;-140.72;100.00
38197;BME280;26543;51.976;4.616;2023-06-26T04:00:03;52289.41;;;-140.72;100.00
38197;BME280;26543;51.976;4.616;2023-06-26T04:02:37;52256.94;;;-140.72;100.00
38197;BME280;26543;51.976;4.616;2023-06-26T04:05:03;52281.28;;;-140.72;100.00
38197;BME280;26543;51.976;4.616;2023-06-26T04:07:29;52285.34;;;-140.72;100.00
38197;BME280;26543;51.976;4.616;2023-06-26T04:09:56;52291.44;;;-140.72;100.00
38197;BME280;26543;51.976;4.616;2023-06-26T04:12:21;52289.41;;;-140.72;100.00
38197;BME280;26543;51.976;4.616;2023-06-26T04:14:46;52303.59;;;-140.72;100.00
38197;BME280;26543;51.976;4.616;2023-06-26T04:17:11;52301.59;;;-140.72;100.00
38197;BME280;26543;51.976;4.616;2023-06-26T04:19:37;52261.00;;;-140.72;100.00
38197;BME280;26543;51.976;4.616;2023-06-26T04:22:02;52283.31;;;-140.72;100.00
38197;BME280;26543;51.976;4.616;2023-06-26T04:24:28;52289.41;;;-140.72;100.00
38197;BME280;26543;51.976;4.616;2023-06-26T04:26:53;52269.13;;;-140.72;100.00
38197;BME280;26543;51.976;4.616;2023-06-26T04:29:22;52297.53;;;-140.72;100.00
38197;BME280;26543;51.976;4.616;2023-06-26T04:31:51;52293.47;;;-140.72;100.00
38197;BME280;26543;51.976;4.616;2023-06-26T04:34:17;52309.69;;;-140.72;100.00
38197;BME280;26543;51.976;4.616;2023-06-26T04:39:42;52277.22;;;-140.72;100.00
38197;BME280;26543;51.976;4.616;2023-06-26T04:42:07;52336.06;;;-140.72;100.00
38197;BME280;26543;51.976;4.616;2023-06-26T04:44:32;52299.56;;;-140.72;100.00
38197;BME280;26543;51.976;4.616;2023-06-26T04:46:58;52297.53;;;-140.72;100.00
38197;BME280;26543;51.976;4.616;2023-06-26T04:49:23;52313.75;;;-140.72;100.00
38197;BME280;26543;51.976;4.616;2023-06-26T04:51:49;52273.19;;;-140.72;100.00
38197;BME280;26543;51.976;4.616;2023-06-26T04:54:15;52297.53;;;-140.72;100.00
38197;BME280;26543;51.976;4.616;2023-06-26T04:56:41;52289.41;;;-140.72;100.00
38197;BME280;26543;51.976;4.616;2023-06-26T04:59:06;52297.53;;;-140.72;100.00
38197;BME280;26543;51.976;4.616;2023-06-26T05:01:31;52301.59;;;-140.72;100.00
38197;BME280;26543;51.976;4.616;2023-06-26T05:04:10;52287.38;;;-140.72;100.00
38197;BME280;26543;51.976;4.616;2023-06-26T05:06:35;52269.13;;;-140.72;100.00
38197;BME280;26543;51.976;4.616;2023-06-26T05:09:01;52297.53;;;-140.72;100.00
38197;BME280;26543;51.976;4.616;2023-06-26T05:11:26;52297.53;;;-140.72;100.00
38197;BME280;26543;51.976;4.616;2023-06-26T05:13:53;52291.44;;;-140.72;100.00
38197;BME280;26543;51.976;4.616;2023-06-26T05:16:19;52299.56;;;-140.72;100.00
38197;BME280;26543;51.976;4.616;2023-06-26T05:18:44;52311.72;;;-140.72;100.00
38197;BME280;26543;51.976;4.616;2023-06-26T05:21:09;52301.59;;;-140.72;100.00
38197;BME280;26543;51.976;4.616;2023-06-26T05:23:34;52269.13;;;-140.72;100.00
38197;BME280;26543;51.976;4.616;2023-06-26T05:26:00;52275.19;;;-140.72;100.00
38197;BME280;26543;51.976;4.616;2023-06-26T05:28:26;52334.03;;;-140.72;100.00
38197;BME280;26543;51.976;4.616;2023-06-26T05:30:52;52317.81;;;-140.72;100.00
38197;BME280;26543;51.976;4.616;2023-06-26T05:35:54;52301.59;;;-140.72;100.00
38197;BME280;26543;51.976;4.616;2023-06-26T05:38:20;52252.88;;;-140.72;100.00
38197;BME280;26543;51.976;4.616;2023-06-26T05:40:45;52277.22;;;-140.72;100.00
38197;BME280;26543;51.976;4.616;2023-06-26T05:43:11;52256.94;;;-140.72;100.00
38197;BME280;26543;51.976;4.616;2023-06-26T05:45:36;52277.22;;;-140.72;100.00
38197;BME280;26543;51.976;4.616;2023-06-26T05:48:01;52279.25;;;-140.72;100.00
38197;BME280;26543;51.976;4.616;2023-06-26T05:50:27;52299.56;;;-140.72;100.00
38197;BME280;26543;51.976;4.616;2023-06-26T05:52:52;52256.94;;;-140.72;100.00
38197;BME280;26543;51.976;4.616;2023-06-26T05:55:26;52263.03;;;-140.72;100.00
38197;BME280;26543;51.976;4.616;2023-06-26T05:57:52;52279.25;;;-140.72;100.00
38197;BME280;26543;51.976;4.616;2023-06-26T06:03:20;52269.13;;;-140.72;100.00
38197;BME280;26543;51.976;4.616;2023-06-26T06:05:46;52301.59;;;-140.72;100.00
38197;BME280;26543;51.976;4.616;2023-06-26T06:08:12;52258.97;;;-140.72;100.00
38197;BME280;26543;51.976;4.616;2023-06-26T06:10:37;52273.19;;;-140.72;100.00
38197;BME280;26543;51.976;4.616;2023-06-26T06:13:02;52285.34;;;-140.72;100.00
38197;BME280;26543;51.976;4.616;2023-06-26T06:15:28;52289.41;;;-140.72;92.48
38197;BME280;26543;51.976;4.616;2023-06-26T06:17:53;52277.22;;;-140.72;69.38
38197;BME280;26543;51.976;4.616;2023-06-26T06:20:18;52265.06;;;-140.72;56.41
38197;BME280;26543;51.976;4.616;2023-06-26T06:22:46;52287.38;;;-140.72;40.70
38197;BME280;26543;51.976;4.616;2023-06-26T06:25:13;52206.22;;;-140.72;1.91
38197;BME280;26543;51.976;4.616;2023-06-26T06:27:38;52212.31;;;-140.72;0.00
38197;BME280;26543;51.976;4.616;2023-06-26T06:30:04;52258.97;;;-140.72;0.00
38197;BME280;26543;51.976;4.616;2023-06-26T06:32:29;52254.91;;;-140.72;0.00
38197;BME280;26543;51.976;4.616;2023-06-26T06:34:54;52244.78;;;-140.72;0.00
38197;BME280;26543;51.976;4.616;2023-06-26T06:37:19;52240.72;;;-140.72;0.00
38197;BME280;26543;51.976;4.616;2023-06-26T06:39:45;52224.47;;;-140.72;0.00
38197;BME280;26543;51.976;4.616;2023-06-26T06:42:10;52271.16;;;-140.72;0.00
38197;BME280;26543;51.976;4.616;2023-06-26T06:44:35;52234.63;;;-140.72;0.00
38197;BME280;26543;51.976;4.616;2023-06-26T06:47:00;52224.47;;;-140.72;0.00
38197;BME280;26543;51.976;4.616;2023-06-26T06:49:26;52248.81;;;-140.72;0.00
38197;BME280;26543;51.976;4.616;2023-06-26T06:51:51;52220.41;;;-140.72;0.00
38197;BME280;26543;51.976;4.616;2023-06-26T06:54:16;52236.66;;;-140.72;0.00
38197;BME280;26543;51.976;4.616;2023-06-26T06:56:42;52279.25;;;-140.72;0.00
38197;BME280;26543;51.976;4.616;2023-06-26T06:59:07;52234.63;;;-140.72;0.00
38197;BME280;26543;51.976;4.616;2023-06-26T07:01:32;52285.34;;;-140.72;0.00
38197;BME280;26543;51.976;4.616;2023-06-26T07:03:58;52265.06;;;-140.72;0.00
38197;BME280;26543;51.976;4.616;2023-06-26T07:06:23;52250.84;;;-140.72;0.00
38197;BME280;26543;51.976;4.616;2023-06-26T07:08:48;52283.31;;;-140.72;0.00
38197;BME280;26543;51.976;4.616;2023-06-26T07:11:14;52242.75;;;-140.72;0.00
38197;BME280;26543;51.976;4.616;2023-06-26T07:13:40;52252.88;;;-140.72;0.00
38197;BME280;26543;51.976;4.616;2023-06-26T07:16:05;52261.00;;;-140.72;0.00
38197;BME280;26543;51.976;4.616;2023-06-26T07:18:30;52248.81;;;-140.72;0.00
38197;BME280;26543;51.976;4.616;2023-06-26T07:20:55;52289.41;;;-140.72;0.00
38197;BME280;26543;51.976;4.616;2023-06-26T07:23:20;52263.03;;;-140.72;0.00
38197;BME280;26543;51.976;4.616;2023-06-26T07:25:46;52256.94;;;-140.72;0.00
38197;BME280;26543;51.976;4.616;2023-06-26T07:28:11;52265.06;;;-140.72;0.00
38197;BME280;26543;51.976;4.616;2023-06-26T07:30:37;52261.00;;;-140.72;0.00
38197;BME280;26543;51.976;4.616;2023-06-26T07:33:04;52277.22;;;-140.72;0.00
38197;BME280;26543;51.976;4.616;2023-06-26T07:35:31;52327.97;;;-140.72;0.00
38197;BME280;26543;51.976;4.616;2023-06-26T07:37:56;52232.59;;;-140.72;0.00
38197;BME280;26543;51.976;4.616;2023-06-26T07:40:32;52238.69;;;-140.72;0.00
38197;BME280;26543;51.976;4.616;2023-06-26T07:42:57;52232.59;;;-140.72;0.00
38197;BME280;26543;51.976;4.616;2023-06-26T07:45:23;52271.16;;;-140.72;0.00
38197;BME280;26543;51.976;4.616;2023-06-26T07:47:48;52248.81;;;-140.72;0.00
38197;BME280;26543;51.976;4.616;2023-06-26T07:50:14;52258.97;;;-140.72;0.00
38197;BME280;26543;51.976;4.616;2023-06-26T07:52:44;52242.75;;;-140.72;0.00
38197;BME280;26543;51.976;4.616;2023-06-26T07:55:25;52252.88;;;-140.72;0.00
38197;BME280;26543;51.976;4.616;2023-06-26T07:57:51;52246.78;;;-140.72;0.00
38197;BME280;26543;51.976;4.616;2023-06-26T08:00:17;52263.03;;;-140.72;0.00
38197;BME280;26543;51.976;4.616;2023-06-26T08:02:42;52244.78;;;-140.72;0.00
38197;BME280;26543;51.976;4.616;2023-06-26T08:05:07;52208.25;;;-140.72;0.00
38197;BME280;26543;51.976;4.616;2023-06-26T08:07:33;52224.47;;;-140.72;0.00
38197;BME280;26543;51.976;4.616;2023-06-26T08:09:58;52242.75;;;-140.72;0.00
38197;BME280;26543;51.976;4.616;2023-06-26T08:12:23;52242.75;;;-140.72;0.00
38197;BME280;26543;51.976;4.616;2023-06-26T08:14:48;52244.78;;;-140.72;0.00
38197;BME280;26543;51.976;4.616;2023-06-26T08:17:14;52242.75;;;-140.72;0.00
38197;BME280;26543;51.976;4.616;2023-06-26T08:19:39;52226.50;;;-140.72;0.00
38197;BME280;26543;51.976;4.616;2023-06-26T08:22:05;52192.00;;;-140.72;0.00
38197;BME280;26543;51.976;4.616;2023-06-26T08:24:30;52179.84;;;-140.72;0.00
38197;BME280;26543;51.976;4.616;2023-06-26T08:26:57;52177.81;;;-140.72;0.00
38197;BME280;26543;51.976;4.616;2023-06-26T08:29:23;52187.97;;;-140.72;0.00
38197;BME280;26543;51.976;4.616;2023-06-26T08:31:48;52159.56;;;-140.72;0.00
38197;BME280;26543;51.976;4.616;2023-06-26T08:34:13;52189.97;;;-140.72;0.00
38197;BME280;26543;51.976;4.616;2023-06-26T08:36:40;52149.41;;;-140.72;0.00
38197;BME280;26543;51.976;4.616;2023-06-26T08:39:05;52173.75;;;-140.72;0.00
38197;BME280;26543;51.976;4.616;2023-06-26T08:41:30;52194.03;;;-140.72;0.00
38197;BME280;26543;51.976;4.616;2023-06-26T08:43:56;52177.81;;;-140.72;0.00
38197;BME280;26543;51.976;4.616;2023-06-26T08:46:21;52187.97;;;-140.72;0.00
38197;BME280;26543;51.976;4.616;2023-06-26T08:48:56;52163.59;;;-140.72;0.00
38197;BME280;26543;51.976;4.616;2023-06-26T08:51:23;52135.19;;;-140.72;0.00
38197;BME280;26543;51.976;4.616;2023-06-26T08:53:52;52141.28;;;-140.72;0.00
38197;BME280;26543;51.976;4.616;2023-06-26T08:56:21;52133.16;;;-140.72;0.00
38197;BME280;26543;51.976;4.616;2023-06-26T08:58:47;52175.78;;;-140.72;0.00
38197;BME280;26543;51.976;4.616;2023-06-26T09:01:12;52183.91;;;-140.72;0.00
38197;BME280;26543;51.976;4.616;2023-06-26T09:03:38;52177.81;;;-140.72;0.00
38197;BME280;26543;51.976;4.616;2023-06-26T09:06:03;52143.31;;;-140.72;0.00
38197;BME280;26543;51.976;4.616;2023-06-26T09:08:28;52112.88;;;-140.72;0.00
38197;BME280;26543;51.976;4.616;2023-06-26T09:10:54;52068.25;;;-140.72;0.00
38197;BME280;26543;51.976;4.616;2023-06-26T09:13:19;52094.63;;;-140.72;0.00
38197;BME280;26543;51.976;4.616;2023-06-26T09:15:44;52052.00;;;-140.72;0.00
38197;BME280;26543;51.976;4.616;2023-06-26T09:18:10;52078.38;;;-140.72;0.00
38197;BME280;26543;51.976;4.616;2023-06-26T09:20:36;52068.25;;;-140.72;0.00
38197;BME280;26543;51.976;4.616;2023-06-26T09:23:01;52092.59;;;-140.72;0.00
38197;BME280;26543;51.976;4.616;2023-06-26T09:25:27;52155.50;;;-140.72;0.00
38197;BME280;26543;51.976;4.616;2023-06-26T09:27:53;52143.31;;;-140.72;0.00
38197;BME280;26543;51.976;4.616;2023-06-26T09:30:18;52086.50;;;-140.72;0.00
38197;BME280;26543;51.976;4.616;2023-06-26T09:32:45;52037.81;;;-140.72;0.00
38197;BME280;26543;51.976;4.616;2023-06-26T09:35:11;52116.94;;;-140.72;0.00
38197;BME280;26543;51.976;4.616;2023-06-26T09:37:36;52037.81;;;-140.72;0.00
38197;BME280;26543;51.976;4.616;2023-06-26T09:40:02;52100.72;;;-140.72;0.00
38197;BME280;26543;51.976;4.616;2023-06-26T09:42:28;52041.88;;;-140.72;0.00
38197;BME280;26543;51.976;4.616;2023-06-26T09:44:54;51983.03;;;-140.72;0.00
38197;BME280;26543;51.976;4.616;2023-06-26T09:47:19;51981.00;;;-140.72;0.00
38197;BME280;26543;51.976;4.616;2023-06-26T09:49:45;52035.78;;;-140.72;0.00
38197;BME280;26543;51.976;4.616;2023-06-26T09:52:14;51981.00;;;-140.72;0.00
38197;BME280;26543;51.976;4.616;2023-06-26T09:54:40;51985.06;;;-140.72;0.00
38197;BME280;26543;51.976;4.616;2023-06-26T09:57:09;52023.59;;;-140.72;0.00
38197;BME280;26543;51.976;4.616;2023-06-26T09:59:35;52025.63;;;-140.72;0.00
38197;BME280;26543;51.976;4.616;2023-06-26T10:02:00;52035.78;;;-140.72;0.00
38197;BME280;26543;51.976;4.616;2023-06-26T10:04:26;51966.81;;;-140.72;0.00
38197;BME280;26543;51.976;4.616;2023-06-26T10:06:51;51948.53;;;-140.72;0.00
38197;BME280;26543;51.976;4.616;2023-06-26T10:09:19;51952.59;;;-140.72;0.00
38197;BME280;26543;51.976;4.616;2023-06-26T10:11:53;51893.75;;;-140.72;0.00
38197;BME280;26543;51.976;4.616;2023-06-26T10:14:20;52049.97;;;-140.72;0.00
38197;BME280;26543;51.976;4.616;2023-06-26T10:16:47;51958.69;;;-140.72;0.00
38197;BME280;26543;51.976;4.616;2023-06-26T10:19:14;51920.13;;;-140.72;0.00
38197;BME280;26543;51.976;4.616;2023-06-26T10:21:44;51958.69;;;-140.72;0.00
38197;BME280;26543;51.976;4.616;2023-06-26T10:24:09;51936.38;;;-140.72;0.00
38197;BME280;26543;51.976;4.616;2023-06-26T10:26:35;51976.94;;;-140.72;0.00
38197;BME280;26543;51.976;4.616;2023-06-26T10:29:03;52017.53;;;-140.72;0.00
38197;BME280;26543;51.976;4.616;2023-06-26T10:31:30;52013.47;;;-140.72;0.00
38197;BME280;26543;51.976;4.616;2023-06-26T10:33:55;51950.56;;;-140.72;0.00
38197;BME280;26543;51.976;4.616;2023-06-26T10:36:26;51989.13;;;-140.72;0.00
38197;BME280;26543;51.976;4.616;2023-06-26T10:38:52;51942.44;;;-140.72;0.00
38197;BME280;26543;51.976;4.616;2023-06-26T10:44:11;52021.56;;;-140.72;0.00
38197;BME280;26543;51.976;4.616;2023-06-26T10:49:15;51972.88;;;-140.72;0.00
38197;BME280;26543;51.976;4.616;2023-06-26T10:51:47;51903.91;;;-140.72;0.00
38197;BME280;26543;51.976;4.616;2023-06-26T10:54:16;51928.25;;;-140.72;0.00
38197;BME280;26543;51.976;4.616;2023-06-26T10:56:42;51871.44;;;-140.72;0.00
38197;BME280;26543;51.976;4.616;2023-06-26T10:59:13;51879.56;;;-140.72;0.00
38197;BME280;26543;51.976;4.616;2023-06-26T11:01:42;51905.94;;;-140.72;0.00
38197;BME280;26543;51.976;4.616;2023-06-26T11:04:07;51849.13;;;-140.72;0.00
38197;BME280;26543;51.976;4.616;2023-06-26T11:06:33;51814.63;;;-140.72;0.00
38197;BME280;26543;51.976;4.616;2023-06-26T11:14:08;51958.69;;;-140.72;0.00
38197;BME280;26543;51.976;4.616;2023-06-26T11:16:35;51962.75;;;-140.72;0.00
38197;BME280;26543;51.976;4.616;2023-06-26T11:19:00;51816.66;;;-140.72;0.00
38197;BME280;26543;51.976;4.616;2023-06-26T11:21:26;51912.03;;;-140.72;0.00
38197;BME280;26543;51.976;4.616;2023-06-26T11:23:51;51895.78;;;-140.72;0.00
38197;BME280;26543;51.976;4.616;2023-06-26T11:26:19;51857.25;;;-140.72;0.00
38197;BME280;26543;51.976;4.616;2023-06-26T11:28:52;51838.97;;;-140.72;0.00
38197;BME280;26543;51.976;4.616;2023-06-26T11:31:30;51877.53;;;-140.72;0.00
38197;BME280;26543;51.976;4.616;2023-06-26T11:33:57;51879.56;;;-140.72;0.00
38197;BME280;26543;51.976;4.616;2023-06-26T11:36:23;51861.28;;;-140.72;0.00
38197;BME280;26543;51.976;4.616;2023-06-26T11:38:56;51794.34;;;-140.72;0.00
38197;BME280;26543;51.976;4.616;2023-06-26T11:41:23;51910.00;;;-140.72;0.00
38197;BME280;26543;51.976;4.616;2023-06-26T11:43:48;52031.72;;;-140.72;0.00
38197;BME280;26543;51.976;4.616;2023-06-26T11:46:15;51865.34;;;-140.72;0.00
38197;BME280;26543;51.976;4.616;2023-06-26T11:48:41;51863.31;;;-140.72;0.00
38197;BME280;26543;51.976;4.616;2023-06-26T11:51:06;51824.78;;;-140.72;0.00
38197;BME280;26543;51.976;4.616;2023-06-26T11:53:31;51826.81;;;-140.72;0.00
38197;BME280;26543;51.976;4.616;2023-06-26T11:55:56;51853.19;;;-140.72;0.00
38197;BME280;26543;51.976;4.616;2023-06-26T11:58:22;51790.28;;;-140.72;0.00
38197;BME280;26543;51.976;4.616;2023-06-26T12:00:47;51885.66;;;-140.72;0.00
38197;BME280;26543;51.976;4.616;2023-06-26T12:03:12;51834.91;;;-140.72;0.00
38197;BME280;26543;51.976;4.616;2023-06-26T12:05:38;51863.31;;;-140.72;0.00
38197;BME280;26543;51.976;4.616;2023-06-26T12:08:03;51863.31;;;-140.72;0.00
38197;BME280;26543;51.976;4.616;2023-06-26T12:10:31;51867.38;;;-140.72;0.00
38197;BME280;26543;51.976;4.616;2023-06-26T12:13:01;51851.16;;;-140.72;0.00
38197;BME280;26543;51.976;4.616;2023-06-26T12:15:26;51869.41;;;-140.72;0.00
38197;BME280;26543;51.976;4.616;2023-06-26T12:17:52;51847.09;;;-140.72;0.00
38197;BME280;26543;51.976;4.616;2023-06-26T12:20:21;51820.72;;;-140.72;0.00
38197;BME280;26543;51.976;4.616;2023-06-26T12:22:47;51893.75;;;-140.72;0.00
38197;BME280;26543;51.976;4.616;2023-06-26T12:25:13;51899.84;;;-140.72;0.00
38197;BME280;26543;51.976;4.616;2023-06-26T12:27:39;51905.94;;;-140.72;0.00
38197;BME280;26543;51.976;4.616;2023-06-26T12:32:54;51838.97;;;-140.72;0.00
38197;BME280;26543;51.976;4.616;2023-06-26T12:35:23;51780.16;;;-140.72;0.00
38197;BME280;26543;51.976;4.616;2023-06-26T12:37:50;51806.53;;;-140.72;0.00
38197;BME280;26543;51.976;4.616;2023-06-26T12:40:18;51796.38;;;-140.72;0.00
38197;BME280;26543;51.976;4.616;2023-06-26T12:42:45;51843.03;;;-140.72;0.00
38197;BME280;26543;51.976;4.616;2023-06-26T12:45:25;51810.56;;;-140.72;0.00
38197;BME280;26543;51.976;4.616;2023-06-26T12:47:50;51737.53;;;-140.72;0.00
38197;BME280;26543;51.976;4.616;2023-06-26T12:50:16;51765.94;;;-140.72;0.00
38197;BME280;26543;51.976;4.616;2023-06-26T12:52:42;51751.75;;;-140.72;0.00
38197;BME280;26543;51.976;4.616;2023-06-26T12:55:07;51863.31;;;-140.72;0.00
38197;BME280;26543;51.976;4.616;2023-06-26T12:57:33;51796.38;;;-140.72;0.00
38197;BME280;26543;51.976;4.616;2023-06-26T12:59:58;51822.75;;;-140.72;0.00
38197;BME280;26543;51.976;4.616;2023-06-26T13:02:25;51806.53;;;-140.72;0.00
38197;BME280;26543;51.976;4.616;2023-06-26T13:04:51;51838.97;;;-140.72;0.00